Misenheimer, North Carolina
Current Conditions -  °F | °C
As of 2:55 PM on Sunday 21 Dec 2014 (Local Time) from KVUJ Reporting Station
Overcast Overcast  
Wind Chill: 46°   Ceiling: 4200
Heat Index: 49°   Visibility: 10mi
Dew Point: 38°   Wind: 7mph
Humidity: 66%   Direction: 20°NNE
Pressure: 30.24"   Gusts: NA
Location:  35.48°N, 80.29°W
Report Text: KVUJ 211955Z AUTO 02006KT 10SM OVC042 10/04 A3024 RMK AO2 T00950035
Loading
Personal Weather Stations






























Interactive Weather Map New forecast layout! Learn more

10-Day Weather Forecast

Advertisements
Track Severe Weather on mobile